createdAt,value
2018-06-22T00:02:47.829Z,12.94
2018-06-22T00:05:51.116Z,12.94
2018-06-22T00:08:55.105Z,12.92
2018-06-22T00:11:58.284Z,12.86
2018-06-22T00:15:01.507Z,12.84
2018-06-22T00:18:04.738Z,12.87
2018-06-22T00:21:07.920Z,12.82
2018-06-22T00:24:11.095Z,12.70
2018-06-22T00:27:14.319Z,12.66
2018-06-22T00:30:17.618Z,12.67
2018-06-22T00:33:21.046Z,12.70
2018-06-22T00:36:24.285Z,12.72
2018-06-22T00:39:27.460Z,12.71
2018-06-22T00:42:30.701Z,12.66
2018-06-22T00:45:34.067Z,12.72
2018-06-22T00:48:37.260Z,12.72
2018-06-22T00:51:40.442Z,12.73
2018-06-22T00:54:43.685Z,12.73
2018-06-22T00:57:46.929Z,12.72
2018-06-22T01:00:50.087Z,12.71
2018-06-22T01:03:53.331Z,12.57
2018-06-22T01:06:56.539Z,12.58
2018-06-22T01:09:59.751Z,12.57
2018-06-22T01:13:02.965Z,12.59
2018-06-22T01:16:06.144Z,12.57
2018-06-22T01:19:09.657Z,12.55
2018-06-22T01:22:12.898Z,12.55
2018-06-22T01:25:16.089Z,12.53
2018-06-22T01:28:19.306Z,12.55
2018-06-22T01:31:22.507Z,12.52
2018-06-22T01:34:25.673Z,12.49
2018-06-22T01:37:28.944Z,12.46
2018-06-22T01:40:32.167Z,12.30
2018-06-22T01:43:35.336Z,12.36
2018-06-22T01:46:38.513Z,12.22
2018-06-22T01:49:42.091Z,12.29
2018-06-22T01:52:45.291Z,12.24
2018-06-22T01:55:48.539Z,12.28
2018-06-22T01:58:51.771Z,12.19
2018-06-22T02:01:55.138Z,12.22
2018-06-22T02:04:58.348Z,12.12
2018-06-22T02:08:01.524Z,12.18
2018-06-22T02:11:04.793Z,12.17
2018-06-22T02:14:08.069Z,12.10
2018-06-22T02:17:11.241Z,12.12
2018-06-22T02:20:14.430Z,12.10
2018-06-22T02:23:17.697Z,12.13
2018-06-22T02:26:20.896Z,12.02
2018-06-22T02:29:24.061Z,12.08
2018-06-22T02:32:27.229Z,11.98
2018-06-22T02:35:30.407Z,12.11
2018-06-22T02:38:33.615Z,12.07
2018-06-22T02:41:36.831Z,12.09
2018-06-22T02:44:40.051Z,12.11
2018-06-22T02:47:43.226Z,12.16
2018-06-22T02:50:46.380Z,12.11
2018-06-22T02:53:49.643Z,12.00
2018-06-22T02:56:52.841Z,12.05
2018-06-22T02:59:56.122Z,12.02
2018-06-22T03:02:59.199Z,12.10
2018-06-22T03:06:02.457Z,12.07
2018-06-22T03:09:07.042Z,12.06
2018-06-22T03:12:10.207Z,11.99
2018-06-22T03:15:13.439Z,12.04
2018-06-22T03:18:16.685Z,11.91
2018-06-22T03:21:19.975Z,11.89
2018-06-22T03:24:23.126Z,11.98
2018-06-22T03:27:26.279Z,11.99
2018-06-22T03:30:29.590Z,12.00
2018-06-22T03:33:33.041Z,11.97
2018-06-22T03:36:36.372Z,11.92
2018-06-22T03:39:39.659Z,12.01
2018-06-22T03:42:43.070Z,11.95
2018-06-22T03:45:46.309Z,11.96
2018-06-22T03:48:50.472Z,11.88
2018-06-22T03:51:53.698Z,11.98
2018-06-22T03:54:56.852Z,11.96
2018-06-22T03:58:00.049Z,12.03
2018-06-22T04:01:03.203Z,12.04
2018-06-22T04:04:06.393Z,11.88
2018-06-22T04:07:09.633Z,11.95
2018-06-22T04:10:12.817Z,11.98
2018-06-22T04:13:15.998Z,11.95
2018-06-22T04:16:19.673Z,11.94
2018-06-22T04:19:22.880Z,12.01
2018-06-22T04:22:26.155Z,11.99
2018-06-22T04:25:29.550Z,11.89
2018-06-22T04:28:32.919Z,11.99
2018-06-22T04:31:36.344Z,11.99
2018-06-22T04:34:39.529Z,12.06
2018-06-22T04:37:42.725Z,12.03
2018-06-22T04:40:45.903Z,12.09
2018-06-22T04:43:49.096Z,12.06
2018-06-22T04:46:53.065Z,12.08
2018-06-22T04:49:56.213Z,12.05
2018-06-22T04:52:59.412Z,12.08
2018-06-22T04:56:02.628Z,12.07
2018-06-22T04:59:05.872Z,12.11
2018-06-22T05:02:10.389Z,12.09
2018-06-22T05:05:13.749Z,12.16
2018-06-22T05:08:17.060Z,12.23
2018-06-22T05:11:20.334Z,12.20
2018-06-22T05:14:24.239Z,12.25
2018-06-22T05:17:27.448Z,12.25
2018-06-22T05:20:30.790Z,12.24
2018-06-22T05:23:34.032Z,12.28
2018-06-22T05:26:37.246Z,12.30
2018-06-22T05:29:40.643Z,12.26
2018-06-22T05:32:45.566Z,12.26
2018-06-22T05:35:48.906Z,12.24
2018-06-22T05:38:52.297Z,12.27
2018-06-22T05:41:55.460Z,12.32
2018-06-22T05:44:58.750Z,12.28
2018-06-22T05:48:01.938Z,12.37
2018-06-22T05:51:05.853Z,12.40
2018-06-22T05:54:09.048Z,12.44
2018-06-22T05:57:12.254Z,12.48
2018-06-22T06:00:15.514Z,12.50
2018-06-22T06:03:18.734Z,12.52
2018-06-22T06:06:21.927Z,12.62
2018-06-22T06:09:25.151Z,12.60
2018-06-22T06:12:28.406Z,12.73
2018-06-22T06:15:31.735Z,12.73
2018-06-22T06:18:34.969Z,13.47
2018-06-22T06:21:38.194Z,13.04
2018-06-22T06:24:41.364Z,13.04
2018-06-22T06:27:44.584Z,12.99
2018-06-22T06:30:47.763Z,12.92
2018-06-22T06:33:50.935Z,12.93
2018-06-22T06:36:54.106Z,12.91
2018-06-22T06:39:57.296Z,12.88
2018-06-22T06:43:00.496Z,12.87
2018-06-22T06:46:03.749Z,12.89
2018-06-22T06:49:06.931Z,12.95
2018-06-22T06:52:10.132Z,12.98
2018-06-22T06:55:13.325Z,13.05
2018-06-22T06:58:16.520Z,13.06
2018-06-22T07:01:19.708Z,13.05
2018-06-22T07:04:22.887Z,13.09
2018-06-22T07:07:26.125Z,13.16
2018-06-22T07:10:29.307Z,13.11
2018-06-22T07:13:32.502Z,13.11
2018-06-22T07:16:35.933Z,13.08
2018-06-22T07:19:39.239Z,13.10
2018-06-22T07:22:42.460Z,13.07
2018-06-22T07:25:45.662Z,13.10
2018-06-22T07:28:48.877Z,13.04
2018-06-22T07:31:52.062Z,13.08
2018-06-22T07:34:55.195Z,13.16
2018-06-22T07:37:58.388Z,13.13
2018-06-22T07:41:01.657Z,13.26
2018-06-22T07:44:04.932Z,13.30
2018-06-22T07:47:08.164Z,13.39
2018-06-22T07:50:11.371Z,13.47
2018-06-22T07:53:14.573Z,13.62
2018-06-22T07:56:17.782Z,13.63
2018-06-22T07:59:21.027Z,13.55
2018-06-22T08:02:24.275Z,13.53
2018-06-22T08:05:27.536Z,13.46
2018-06-22T08:08:30.781Z,13.30
2018-06-22T08:11:34.037Z,13.07
2018-06-22T08:14:37.328Z,13.04
2018-06-22T08:17:41.629Z,12.78
2018-06-22T08:20:46.471Z,12.86
2018-06-22T08:23:50.143Z,12.94
2018-06-22T08:26:53.799Z,12.94
2018-06-22T08:29:58.079Z,12.86
2018-06-22T08:33:02.319Z,12.89
2018-06-22T08:36:05.774Z,12.95
2018-06-22T08:39:10.131Z,13.02
2018-06-22T08:42:14.537Z,13.02
2018-06-22T08:45:18.085Z,13.04
2018-06-22T08:48:21.842Z,13.11
2018-06-22T08:51:25.563Z,13.21
2018-06-22T08:54:29.536Z,13.28
2018-06-22T08:57:34.222Z,13.39
2018-06-22T09:00:37.664Z,13.56
2018-06-22T09:03:42.223Z,13.73
2018-06-22T09:06:46.456Z,13.87
2018-06-22T09:09:49.943Z,14.04
2018-06-22T09:12:56.290Z,14.19
2018-06-22T09:16:00.175Z,14.25
2018-06-22T09:19:03.627Z,14.19
2018-06-22T09:22:06.997Z,14.24
2018-06-22T09:25:10.236Z,14.47
2018-06-22T09:28:13.950Z,14.77
2018-06-22T09:31:17.905Z,14.92
2018-06-22T09:34:21.434Z,15.31
2018-06-22T09:37:25.764Z,15.45
2018-06-22T09:40:29.469Z,15.60
2018-06-22T09:43:33.076Z,15.91
2018-06-22T09:46:37.429Z,15.96
2018-06-22T09:49:41.912Z,15.80
2018-06-22T09:52:45.872Z,15.63
2018-06-22T09:55:49.862Z,15.30
2018-06-22T09:58:54.016Z,15.03
2018-06-22T10:01:59.324Z,14.91
2018-06-22T10:05:03.470Z,14.81
2018-06-22T10:08:07.151Z,14.82
2018-06-22T10:11:10.484Z,15.02
2018-06-22T10:14:13.836Z,15.34
2018-06-22T10:17:17.147Z,15.74
2018-06-22T10:20:20.436Z,16.16
2018-06-22T10:23:24.002Z,16.46
2018-06-22T10:26:27.387Z,16.66
2018-06-22T10:29:30.631Z,16.65
2018-06-22T10:32:33.939Z,16.54
2018-06-22T10:35:37.239Z,16.15
2018-06-22T10:38:40.532Z,15.76
2018-06-22T10:41:43.856Z,15.76
2018-06-22T10:44:47.125Z,15.52
2018-06-22T10:47:50.679Z,15.51
2018-06-22T10:50:53.947Z,15.52
2018-06-22T10:53:57.863Z,15.58
2018-06-22T10:57:01.316Z,15.56
2018-06-22T11:00:05.383Z,15.66
2018-06-22T11:03:11.759Z,15.80
2018-06-22T11:06:16.632Z,15.98
2018-06-22T11:09:21.075Z,15.98
2018-06-22T11:12:24.921Z,16.45
2018-06-22T11:15:28.367Z,16.57
2018-06-22T11:18:35.777Z,17.01
2018-06-22T11:21:39.136Z,17.31
2018-06-22T11:24:42.799Z,17.63
2018-06-22T11:27:46.153Z,17.68
2018-06-22T11:30:49.512Z,17.98
2018-06-22T11:33:52.880Z,18.02
2018-06-22T11:36:56.200Z,18.21
2018-06-22T11:39:59.518Z,18.21
2018-06-22T11:43:02.781Z,18.03
2018-06-22T11:46:06.239Z,18.09
2018-06-22T11:49:09.545Z,18.10
2018-06-22T11:52:12.951Z,18.30
2018-06-22T11:55:18.740Z,18.79
2018-06-22T11:58:23.248Z,18.83
2018-06-22T12:01:35.818Z,19.29
2018-06-22T12:04:49.759Z,19.49
2018-06-22T12:07:53.606Z,19.64
2018-06-22T12:11:02.040Z,19.91
2018-06-22T12:14:06.767Z,19.78
2018-06-22T12:17:10.192Z,19.98
2018-06-22T12:20:20.734Z,19.98
2018-06-22T12:23:31.382Z,20.33
2018-06-22T12:26:34.798Z,20.10
2018-06-22T12:29:38.387Z,20.24
2018-06-22T12:32:41.968Z,20.56
2018-06-22T12:35:52.782Z,20.63
2018-06-22T12:39:00.516Z,19.82
2018-06-22T12:42:05.017Z,19.82
2018-06-22T12:45:08.871Z,19.78
2018-06-22T12:48:21.598Z,18.95
2018-06-22T12:51:25.566Z,18.36
2018-06-22T12:54:30.130Z,18.16
2018-06-22T12:57:34.298Z,18.23
2018-06-22T13:00:37.800Z,18.21
2018-06-22T13:03:42.139Z,18.20
2018-06-22T13:06:46.429Z,17.95
2018-06-22T13:09:50.583Z,17.62
2018-06-22T13:12:56.312Z,17.90
2018-06-22T13:15:59.979Z,17.81
2018-06-22T13:19:04.706Z,17.70
2018-06-22T13:22:08.760Z,18.44
2018-06-22T13:25:13.966Z,18.66
2018-06-22T13:28:18.801Z,18.74
2018-06-22T13:31:22.867Z,18.65
2018-06-22T13:34:26.966Z,18.61
2018-06-22T13:37:31.668Z,19.03
2018-06-22T13:40:35.800Z,19.30
2018-06-22T13:43:39.500Z,19.73
2018-06-22T13:46:43.662Z,19.79
2018-06-22T13:49:47.315Z,20.11
2018-06-22T13:52:50.854Z,20.46
2018-06-22T13:55:54.880Z,20.29
2018-06-22T13:58:58.704Z,20.35
2018-06-22T14:02:04.004Z,19.80
2018-06-22T14:05:12.872Z,20.48
2018-06-22T14:08:19.480Z,20.76
2018-06-22T14:11:24.742Z,20.64
2018-06-22T14:14:30.400Z,20.84
2018-06-22T14:17:36.189Z,20.72
2018-06-22T14:24:24.216Z,20.05
2018-06-22T14:27:27.724Z,20.11
2018-06-22T14:30:31.163Z,19.60
2018-06-22T14:33:34.659Z,19.25
2018-06-22T14:36:38.102Z,19.16
2018-06-22T14:39:41.517Z,19.30
2018-06-22T14:42:45.333Z,19.43
2018-06-22T14:45:49.592Z,19.85
2018-06-22T14:48:53.500Z,19.82
2018-06-22T14:52:02.675Z,19.81
2018-06-22T14:55:11.170Z,19.58
2018-06-22T14:58:20.678Z,19.68
2018-06-22T15:01:31.051Z,19.85
2018-06-22T15:04:56.683Z,19.37
2018-06-22T15:08:07.356Z,19.29
2018-06-22T15:11:17.832Z,19.24
2018-06-22T15:14:29.193Z,19.33
2018-06-22T15:17:37.539Z,19.05
2018-06-22T15:20:45.786Z,19.20
2018-06-22T15:23:49.530Z,19.16
2018-06-22T15:26:53.760Z,19.14
2018-06-22T15:29:58.548Z,18.84
2018-06-22T15:33:02.269Z,18.97
2018-06-22T15:36:12.342Z,18.98
2018-06-22T15:39:21.518Z,18.90
2018-06-22T15:42:30.349Z,18.94
2018-06-22T15:45:39.079Z,18.81
2018-06-22T15:48:48.714Z,18.62
2018-06-22T15:51:57.645Z,18.58
2018-06-22T15:55:08.166Z,18.63
2018-06-22T15:58:11.671Z,18.65
2018-06-22T16:01:15.049Z,18.68
2018-06-22T16:04:18.413Z,18.57
2018-06-22T16:07:22.691Z,18.67
2018-06-22T16:10:26.654Z,18.78
2018-06-22T16:13:30.315Z,18.79
2018-06-22T16:16:39.226Z,18.88
2018-06-22T16:19:48.089Z,19.06
2018-06-22T16:22:56.665Z,19.16
2018-06-22T16:26:05.854Z,19.22
2018-06-22T16:29:09.334Z,19.21
2018-06-22T16:32:13.377Z,19.26
2018-06-22T16:35:16.777Z,19.39
2018-06-22T16:38:20.216Z,19.46
2018-06-22T16:41:24.146Z,19.52
2018-06-22T16:44:27.747Z,19.32
2018-06-22T16:47:31.608Z,19.30
2018-06-22T16:50:35.102Z,19.24
2018-06-22T16:53:38.527Z,19.23
2018-06-22T16:56:42.037Z,19.08
2018-06-22T16:59:46.324Z,19.06
2018-06-22T17:02:52.710Z,18.88
2018-06-22T17:05:57.488Z,18.84
2018-06-22T17:09:06.470Z,18.87
2018-06-22T17:12:15.128Z,18.68
2018-06-22T17:15:28.364Z,18.80
2018-06-22T17:18:37.328Z,18.66
2018-06-22T17:21:42.125Z,18.74
2018-06-22T17:24:46.219Z,18.73
2018-06-22T17:27:49.962Z,18.71
2018-06-22T17:30:53.892Z,18.78
2018-06-22T17:33:58.492Z,18.64
2018-06-22T17:37:03.180Z,18.68
2018-06-22T17:40:09.593Z,18.65
2018-06-22T17:43:13.514Z,18.68
2018-06-22T17:46:32.588Z,18.63
2018-06-22T17:49:39.880Z,18.65
2018-06-22T17:52:43.551Z,18.51
2018-06-22T17:55:47.745Z,18.50
2018-06-22T17:58:56.774Z,18.54
2018-06-22T18:02:05.834Z,18.37
2018-06-22T18:05:14.687Z,18.42
2018-06-22T18:08:23.666Z,18.39
2018-06-22T18:11:32.664Z,18.40
2018-06-22T18:14:36.235Z,18.42
2018-06-22T18:17:39.948Z,17.81
2018-06-22T18:20:43.948Z,17.13
2018-06-22T18:23:47.467Z,17.15
2018-06-22T18:26:52.376Z,17.11
2018-06-22T18:29:56.738Z,17.08
2018-06-22T18:33:00.418Z,17.02
2018-06-22T18:36:06.943Z,17.01
2018-06-22T18:39:12.013Z,16.71
2018-06-22T18:42:16.610Z,16.62
2018-06-22T18:45:20.317Z,16.59
2018-06-22T18:48:24.270Z,16.68
2018-06-22T18:51:28.178Z,16.61
2018-06-22T18:54:37.430Z,16.63
2018-06-22T18:57:46.299Z,16.72
2018-06-22T19:00:55.907Z,16.72
2018-06-22T19:04:00.635Z,16.51
2018-06-22T19:07:06.569Z,16.68
2018-06-22T19:10:10.700Z,16.61
2018-06-22T19:13:14.397Z,16.62
2018-06-22T19:16:19.432Z,16.79
2018-06-22T19:19:23.530Z,16.69
2018-06-22T19:22:27.488Z,16.69
2018-06-22T19:25:31.008Z,16.62
2018-06-22T19:28:36.977Z,16.57
2018-06-22T19:31:40.647Z,16.61
2018-06-22T19:34:49.534Z,16.57
2018-06-22T19:37:53.237Z,16.58
2018-06-22T19:40:57.204Z,16.63
2018-06-22T19:44:06.237Z,16.62
2018-06-22T19:47:15.234Z,16.58
2018-06-22T19:50:24.236Z,16.36
2018-06-22T19:53:33.111Z,16.42
2018-06-22T19:56:37.707Z,16.40
2018-06-22T19:59:41.227Z,16.38
2018-06-22T20:02:44.923Z,16.36
2018-06-22T20:05:48.482Z,16.38
2018-06-22T20:08:52.949Z,16.44
2018-06-22T20:11:57.585Z,16.38
2018-06-22T20:15:01.194Z,16.34
2018-06-22T20:18:04.860Z,16.29
2018-06-22T20:21:09.321Z,16.20
2018-06-22T20:24:12.990Z,16.27
2018-06-22T20:27:19.909Z,16.27
2018-06-22T20:30:23.947Z,16.25
2018-06-22T20:33:27.781Z,16.27
2018-06-22T20:36:36.501Z,16.23
2018-06-22T20:39:45.465Z,16.23
2018-06-22T20:42:54.407Z,16.27
2018-06-22T20:45:59.247Z,16.16
2018-06-22T20:49:08.142Z,16.08
2018-06-22T20:52:11.964Z,16.08
2018-06-22T20:55:16.736Z,16.00
2018-06-22T20:58:20.744Z,16.01
2018-06-22T21:01:24.425Z,16.03
2018-06-22T21:04:28.053Z,15.89
2018-06-22T21:07:31.842Z,15.85
2018-06-22T21:10:35.486Z,15.90
2018-06-22T21:13:39.101Z,15.91
2018-06-22T21:16:42.755Z,15.74
2018-06-22T21:19:47.160Z,16.11
2018-06-22T21:22:50.915Z,15.91
2018-06-22T21:25:54.474Z,15.93
2018-06-22T21:29:03.313Z,15.77
2018-06-22T21:32:11.919Z,15.88
2018-06-22T21:35:20.540Z,15.81
2018-06-22T21:38:29.254Z,15.79
2018-06-22T21:41:32.700Z,15.60
2018-06-22T21:44:36.429Z,15.52
2018-06-22T21:47:39.987Z,15.41
2018-06-22T21:50:43.396Z,15.46
2018-06-22T21:53:46.754Z,15.53
2018-06-22T21:56:50.160Z,15.55
2018-06-22T21:59:53.588Z,15.52
2018-06-22T22:02:57.936Z,15.49
2018-06-22T22:06:02.205Z,15.35
2018-06-22T22:09:08.089Z,15.30
2018-06-22T22:12:11.687Z,15.38
2018-06-22T22:15:15.866Z,15.35
2018-06-22T22:18:19.344Z,15.38
2018-06-22T22:21:23.834Z,15.37
2018-06-22T22:24:27.334Z,15.30
2018-06-22T22:27:30.656Z,15.35
2018-06-22T22:30:34.025Z,15.32
2018-06-22T22:33:37.530Z,15.29
2018-06-22T22:36:41.329Z,15.25
2018-06-22T22:39:44.813Z,15.28
2018-06-22T22:42:48.254Z,15.08
2018-06-22T22:45:52.153Z,15.26
2018-06-22T22:48:55.433Z,15.19
2018-06-22T22:51:58.733Z,15.24
2018-06-22T22:55:02.738Z,15.07
2018-06-22T22:58:06.279Z,15.02
2018-06-22T23:01:09.664Z,14.97
2018-06-22T23:04:13.012Z,15.06
2018-06-22T23:07:16.952Z,15.01
2018-06-22T23:10:21.149Z,15.11
2018-06-22T23:13:26.671Z,15.06
2018-06-22T23:16:30.023Z,14.94
2018-06-22T23:19:33.565Z,14.77
2018-06-22T23:22:48.402Z,14.77
2018-06-22T23:25:52.296Z,14.81
2018-06-22T23:28:56.676Z,14.71
2018-06-22T23:32:00.048Z,14.68
2018-06-22T23:35:03.349Z,14.78
2018-06-22T23:38:07.903Z,14.66
2018-06-22T23:41:11.276Z,14.66
2018-06-22T23:44:15.716Z,14.57
2018-06-22T23:47:18.968Z,14.57
2018-06-22T23:50:22.205Z,14.47
2018-06-22T23:53:25.404Z,14.47
2018-06-22T23:56:28.618Z,14.45
2018-06-22T23:59:31.904Z,14.47
